ATMO2: Muddy Boggy Creek at Atoka

                                SHEF ID:       ATMO2     Muddy Boggy Creek at Atoka, OK
STATION TYPE:

PRECIP STAGE RIV-FLOW VOLTAGE BAT-LOAD
in ft cfs volt volt
Ccp-Rev Ccp-Rev Ccp-Rev Ccp-Rev Ccp-Rev
(America/Chicago)
03/06 00:00 0.00 18.86 946 12.66 12.41
03/06 01:00 0.00 20.17 1648 12.65 12.40
03/06 02:00 0.00 21.00 2093 12.65 12.40
03/06 03:00 0.00 21.65 2442 12.64 12.40
03/06 04:00 0.00 22.08 2672 12.63 12.39
03/06 05:00 0.00 22.44 2865 12.63 12.38
03/06 06:00 0.00 22.75 3031 12.63 12.38
03/06 07:00 0.00 22.99 3162 12.63 12.37
03/06 08:00 0.00 23.20 3281 12.65 12.40
03/06 09:00 0.00 23.37 3376 12.74 12.47
03/06 10:00 0.00 23.53 3466 12.90 12.63
03/06 11:00 0.00 23.66 3539 12.91 12.65
03/06 12:00 0.00 23.78 3607 13.02 12.75
03/06 13:00 0.00 23.88 3663 13.01 12.71
03/06 14:00 0.09 23.98 3719 13.07 12.78
03/06 15:00 0.00 24.05 3759 12.94 12.69
03/06 16:00 0.00 24.11 3793 12.90 12.62
03/06 17:00 0.00 24.15 3815 12.91 12.64
03/06 18:00 0.00 24.22 3855 12.79 12.53
03/06 19:00 0.00 24.26 3877 12.76 12.50
03/06 20:00 0.00 24.31 3905 12.73 12.48
03/06 21:00 0.00 24.32 3911 12.71 12.47
03/06 22:00 0.15 24.34 3922 12.71 12.46
03/06 23:00 0.01 24.32 3911 12.70 12.44
Data processed at Sat 07Mar2026 05:54 GMT

NOTICE: If you are parsing this page

Please convert to using our Data API. Starting early 2026 we will be migrating to: https://water.usace.army.mil with modern pages rendered in JavaScript. When this migration completes you will no longer be able to scrape this page! CWMSDataAPI (CDA)

Timeseries IDs (TSIDs)

TSIDs used from left to right in the data table
ATMB.Precip-Inc.Total.1Hour.1Hour.Ccp-Rev
ATMB.Stage.Inst.1Hour.0.Ccp-Rev
ATMB.Flow.Inst.1Hour.0.Ccp-Rev
ATMB.Volt-Battery.Inst.1Hour.0.Ccp-Rev
ATMB.Volt-Battery Load.Inst.1Hour.0.Ccp-Rev

                            

All information presented herein is the property of the government of the United States of America and may be revised or deleted at any time without prior notice. Dissemination of this information without the expressed written consent of the Public Affairs Office, Tulsa District U.S. Army Corps of Engineers is strictly prohibited. These data are gathered electronically and, as presented, have NOT undergone any form of quality control. These data are NOT guaranteed to be valid or correct.